sensor_id;sensor_type;location;lat;lon;timestamp;pressure;altitude;pressure_sealevel;temperature;humidity
32298;BME280;18782;48.984;8.548;2023-02-07T00:01:09;101950.63;;;1.28;86.19
32298;BME280;18782;48.984;8.548;2023-02-07T00:03:38;101950.06;;;1.22;85.84
32298;BME280;18782;48.984;8.548;2023-02-07T00:06:08;101949.03;;;1.20;86.44
32298;BME280;18782;48.984;8.548;2023-02-07T00:08:37;101945.31;;;1.17;87.04
32298;BME280;18782;48.984;8.548;2023-02-07T00:11:05;101951.28;;;1.17;87.03
32298;BME280;18782;48.984;8.548;2023-02-07T00:13:34;101954.84;;;1.19;87.39
32298;BME280;18782;48.984;8.548;2023-02-07T00:16:03;101954.56;;;1.16;87.89
32298;BME280;18782;48.984;8.548;2023-02-07T00:18:33;101948.00;;;1.10;87.80
32298;BME280;18782;48.984;8.548;2023-02-07T00:21:05;101948.94;;;1.10;87.61
32298;BME280;18782;48.984;8.548;2023-02-07T00:23:33;101950.41;;;1.08;88.25
32298;BME280;18782;48.984;8.548;2023-02-07T00:26:03;101951.63;;;1.03;88.73
32298;BME280;18782;48.984;8.548;2023-02-07T00:28:30;101949.84;;;1.02;87.99
32298;BME280;18782;48.984;8.548;2023-02-07T00:31:03;101950.72;;;1.02;88.63
32298;BME280;18782;48.984;8.548;2023-02-07T00:33:30;101933.72;;;1.01;88.60
32298;BME280;18782;48.984;8.548;2023-02-07T00:36:00;101937.63;;;0.98;88.83
32298;BME280;18782;48.984;8.548;2023-02-07T00:38:30;101926.00;;;1.00;88.40
32298;BME280;18782;48.984;8.548;2023-02-07T00:40:58;101924.47;;;1.02;88.12
32298;BME280;18782;48.984;8.548;2023-02-07T00:43:27;101926.31;;;0.94;87.78
32298;BME280;18782;48.984;8.548;2023-02-07T00:45:56;101912.31;;;0.89;87.68
32298;BME280;18782;48.984;8.548;2023-02-07T00:48:24;101916.44;;;0.89;87.96
32298;BME280;18782;48.984;8.548;2023-02-07T00:50:52;101919.47;;;0.85;87.57
32298;BME280;18782;48.984;8.548;2023-02-07T00:53:20;101916.78;;;0.83;87.70
32298;BME280;18782;48.984;8.548;2023-02-07T00:55:50;101929.31;;;0.82;87.21
32298;BME280;18782;48.984;8.548;2023-02-07T00:58:17;101927.53;;;0.81;86.82
32298;BME280;18782;48.984;8.548;2023-02-07T01:00:45;101935.88;;;0.80;85.83
32298;BME280;18782;48.984;8.548;2023-02-07T01:03:13;101935.31;;;0.73;85.81
32298;BME280;18782;48.984;8.548;2023-02-07T01:05:41;101946.94;;;0.71;85.84
32298;BME280;18782;48.984;8.548;2023-02-07T01:08:09;101939.78;;;0.67;85.24
32298;BME280;18782;48.984;8.548;2023-02-07T01:10:38;101953.78;;;0.72;82.48
32298;BME280;18782;48.984;8.548;2023-02-07T01:13:10;101952.00;;;0.71;79.73
32298;BME280;18782;48.984;8.548;2023-02-07T01:15:41;101940.66;;;0.68;79.15
32298;BME280;18782;48.984;8.548;2023-02-07T01:18:09;101942.03;;;0.64;77.55
32298;BME280;18782;48.984;8.548;2023-02-07T01:20:37;101938.75;;;0.65;76.70
32298;BME280;18782;48.984;8.548;2023-02-07T01:23:05;101942.78;;;0.63;75.23
32298;BME280;18782;48.984;8.548;2023-02-07T01:25:33;101945.47;;;0.65;73.92
32298;BME280;18782;48.984;8.548;2023-02-07T01:28:02;101950.84;;;0.59;75.19
32298;BME280;18782;48.984;8.548;2023-02-07T01:30:32;101933.53;;;0.55;74.22
32298;BME280;18782;48.984;8.548;2023-02-07T01:32:59;101942.78;;;0.55;74.47
32298;BME280;18782;48.984;8.548;2023-02-07T01:35:27;101950.53;;;0.56;74.20
32298;BME280;18782;48.984;8.548;2023-02-07T01:37:54;101960.38;;;0.53;73.61
32298;BME280;18782;48.984;8.548;2023-02-07T01:40:24;101958.56;;;0.52;73.94
32298;BME280;18782;48.984;8.548;2023-02-07T01:42:52;101953.09;;;0.47;73.06
32298;BME280;18782;48.984;8.548;2023-02-07T01:45:26;101949.94;;;0.50;73.16
32298;BME280;18782;48.984;8.548;2023-02-07T01:47:59;101950.38;;;0.46;74.12
32298;BME280;18782;48.984;8.548;2023-02-07T01:50:27;101962.47;;;0.40;74.46
32298;BME280;18782;48.984;8.548;2023-02-07T01:52:57;101950.56;;;0.39;74.13
32298;BME280;18782;48.984;8.548;2023-02-07T01:55:29;101955.31;;;0.36;73.59
32298;BME280;18782;48.984;8.548;2023-02-07T01:58:02;101948.59;;;0.36;74.01
32298;BME280;18782;48.984;8.548;2023-02-07T02:00:30;101965.44;;;0.36;74.42
32298;BME280;18782;48.984;8.548;2023-02-07T02:02:59;101965.44;;;0.36;74.21
32298;BME280;18782;48.984;8.548;2023-02-07T02:05:29;101969.91;;;0.30;74.84
32298;BME280;18782;48.984;8.548;2023-02-07T02:07:57;101972.44;;;0.30;74.43
32298;BME280;18782;48.984;8.548;2023-02-07T02:10:34;101972.59;;;0.22;75.08
32298;BME280;18782;48.984;8.548;2023-02-07T02:13:19;101974.53;;;0.16;75.94
32298;BME280;18782;48.984;8.548;2023-02-07T02:15:57;101969.16;;;0.13;76.53
32298;BME280;18782;48.984;8.548;2023-02-07T02:18:44;101964.72;;;0.11;76.50
32298;BME280;18782;48.984;8.548;2023-02-07T02:21:56;101969.31;;;0.06;76.30
32298;BME280;18782;48.984;8.548;2023-02-07T02:24:55;101971.09;;;0.07;76.32
32298;BME280;18782;48.984;8.548;2023-02-07T02:27:47;101967.22;;;0.02;76.63
32298;BME280;18782;48.984;8.548;2023-02-07T02:30:54;101968.09;;;-0.06;77.42
32298;BME280;18782;48.984;8.548;2023-02-07T02:33:38;101955.91;;;-0.10;77.40
32298;BME280;18782;48.984;8.548;2023-02-07T02:36:18;101949.66;;;-0.05;77.75
32298;BME280;18782;48.984;8.548;2023-02-07T02:38:53;101935.66;;;-0.10;78.09
32298;BME280;18782;48.984;8.548;2023-02-07T02:41:26;101940.09;;;-0.16;78.23
32298;BME280;18782;48.984;8.548;2023-02-07T02:44:00;101960.66;;;-0.13;78.24
32298;BME280;18782;48.984;8.548;2023-02-07T02:46:31;101963.59;;;-0.17;78.09
32298;BME280;18782;48.984;8.548;2023-02-07T02:49:03;101957.63;;;-0.27;79.04
32298;BME280;18782;48.984;8.548;2023-02-07T02:51:31;101955.69;;;-0.29;79.25
32298;BME280;18782;48.984;8.548;2023-02-07T02:54:00;101962.41;;;-0.30;79.84
32298;BME280;18782;48.984;8.548;2023-02-07T02:56:48;101961.50;;;-0.30;80.06
32298;BME280;18782;48.984;8.548;2023-02-07T02:59:40;101970.09;;;-0.37;79.67
32298;BME280;18782;48.984;8.548;2023-02-07T03:02:23;101975.81;;;-0.31;78.43
32298;BME280;18782;48.984;8.548;2023-02-07T03:05:06;101966.84;;;-0.36;78.61
32298;BME280;18782;48.984;8.548;2023-02-07T03:07:43;101978.44;;;-0.38;79.15
32298;BME280;18782;48.984;8.548;2023-02-07T03:10:20;101982.59;;;-0.38;77.47
32298;BME280;18782;48.984;8.548;2023-02-07T03:12:56;101984.09;;;-0.40;77.98
32298;BME280;18782;48.984;8.548;2023-02-07T03:15:32;101985.41;;;-0.44;77.46
32298;BME280;18782;48.984;8.548;2023-02-07T03:18:07;101994.31;;;-0.47;78.37
32298;BME280;18782;48.984;8.548;2023-02-07T03:20:42;101999.25;;;-0.49;77.59
32298;BME280;18782;48.984;8.548;2023-02-07T03:23:13;101992.06;;;-0.53;78.05
32298;BME280;18782;48.984;8.548;2023-02-07T03:25:43;101987.03;;;-0.53;77.21
32298;BME280;18782;48.984;8.548;2023-02-07T03:28:12;101990.91;;;-0.57;77.90
32298;BME280;18782;48.984;8.548;2023-02-07T03:30:44;101995.22;;;-0.56;78.26
32298;BME280;18782;48.984;8.548;2023-02-07T03:33:16;101988.19;;;-0.58;77.52
32298;BME280;18782;48.984;8.548;2023-02-07T03:35:49;101982.25;;;-0.59;77.65
32298;BME280;18782;48.984;8.548;2023-02-07T03:38:20;101991.16;;;-0.62;77.85
32298;BME280;18782;48.984;8.548;2023-02-07T03:40:51;101981.66;;;-0.56;77.24
32298;BME280;18782;48.984;8.548;2023-02-07T03:43:21;101981.06;;;-0.62;77.00
32298;BME280;18782;48.984;8.548;2023-02-07T03:45:51;101985.03;;;-0.64;76.71
32298;BME280;18782;48.984;8.548;2023-02-07T03:48:19;101982.38;;;-0.66;76.11
32298;BME280;18782;48.984;8.548;2023-02-07T03:50:48;101976.97;;;-0.69;76.40
32298;BME280;18782;48.984;8.548;2023-02-07T03:53:17;101976.97;;;-0.69;77.98
32298;BME280;18782;48.984;8.548;2023-02-07T03:55:45;101983.38;;;-0.72;77.29
32298;BME280;18782;48.984;8.548;2023-02-07T03:58:12;101990.97;;;-0.72;78.06
32298;BME280;18782;48.984;8.548;2023-02-07T04:00:40;101995.38;;;-0.79;77.72
32298;BME280;18782;48.984;8.548;2023-02-07T04:03:08;101994.94;;;-0.83;78.64
32298;BME280;18782;48.984;8.548;2023-02-07T04:05:35;101998.78;;;-0.87;78.25
32298;BME280;18782;48.984;8.548;2023-02-07T04:08:05;101993.13;;;-0.84;78.89
32298;BME280;18782;48.984;8.548;2023-02-07T04:10:32;102002.06;;;-0.88;79.49
32298;BME280;18782;48.984;8.548;2023-02-07T04:13:00;101997.00;;;-0.88;77.90
32298;BME280;18782;48.984;8.548;2023-02-07T04:15:28;101993.41;;;-0.90;78.04
32298;BME280;18782;48.984;8.548;2023-02-07T04:17:55;101986.56;;;-0.91;79.25
32298;BME280;18782;48.984;8.548;2023-02-07T04:20:23;101991.59;;;-0.91;79.39
32298;BME280;18782;48.984;8.548;2023-02-07T04:22:50;101976.84;;;-0.95;79.23
32298;BME280;18782;48.984;8.548;2023-02-07T04:25:19;101975.81;;;-0.97;78.49
32298;BME280;18782;48.984;8.548;2023-02-07T04:27:50;101979.38;;;-0.95;78.42
32298;BME280;18782;48.984;8.548;2023-02-07T04:30:17;101980.56;;;-1.00;79.00
32298;BME280;18782;48.984;8.548;2023-02-07T04:32:45;101968.97;;;-0.98;80.17
32298;BME280;18782;48.984;8.548;2023-02-07T04:35:13;101973.84;;;-0.99;81.47
32298;BME280;18782;48.984;8.548;2023-02-07T04:37:40;101980.81;;;-1.06;80.07
32298;BME280;18782;48.984;8.548;2023-02-07T04:40:09;101985.31;;;-1.03;80.84
32298;BME280;18782;48.984;8.548;2023-02-07T04:42:38;101981.41;;;-1.08;80.79
32298;BME280;18782;48.984;8.548;2023-02-07T04:45:06;101981.09;;;-1.11;81.31
32298;BME280;18782;48.984;8.548;2023-02-07T04:47:34;101974.34;;;-1.19;80.74
32298;BME280;18782;48.984;8.548;2023-02-07T04:50:01;101978.97;;;-1.15;82.10
32298;BME280;18782;48.984;8.548;2023-02-07T04:52:29;101980.78;;;-1.14;81.09
32298;BME280;18782;48.984;8.548;2023-02-07T04:54:57;101984.03;;;-1.15;81.09
32298;BME280;18782;48.984;8.548;2023-02-07T04:57:24;101976.00;;;-1.20;80.08
32298;BME280;18782;48.984;8.548;2023-02-07T04:59:53;101972.25;;;-1.23;80.86
32298;BME280;18782;48.984;8.548;2023-02-07T05:02:21;101973.69;;;-1.25;79.80
32298;BME280;18782;48.984;8.548;2023-02-07T05:04:49;101985.28;;;-1.27;80.40
32298;BME280;18782;48.984;8.548;2023-02-07T05:07:17;101984.88;;;-1.23;80.33
32298;BME280;18782;48.984;8.548;2023-02-07T05:09:44;101990.50;;;-1.26;80.21
32298;BME280;18782;48.984;8.548;2023-02-07T05:12:14;101982.47;;;-1.30;80.10
32298;BME280;18782;48.984;8.548;2023-02-07T05:14:41;101988.66;;;-1.36;80.45
32298;BME280;18782;48.984;8.548;2023-02-07T05:17:10;101999.06;;;-1.33;81.33
32298;BME280;18782;48.984;8.548;2023-02-07T05:19:38;101995.50;;;-1.35;81.43
32298;BME280;18782;48.984;8.548;2023-02-07T05:22:06;101993.38;;;-1.39;81.03
32298;BME280;18782;48.984;8.548;2023-02-07T05:24:33;101994.88;;;-1.41;82.65
32298;BME280;18782;48.984;8.548;2023-02-07T05:27:01;101995.78;;;-1.40;82.92
32298;BME280;18782;48.984;8.548;2023-02-07T05:29:29;101996.66;;;-1.40;83.07
32298;BME280;18782;48.984;8.548;2023-02-07T05:31:56;101998.09;;;-1.42;82.75
32298;BME280;18782;48.984;8.548;2023-02-07T05:34:43;101989.50;;;-1.44;82.45
32298;BME280;18782;48.984;8.548;2023-02-07T05:37:11;101991.88;;;-1.45;82.18
32298;BME280;18782;48.984;8.548;2023-02-07T05:39:38;102003.59;;;-1.46;81.69
32298;BME280;18782;48.984;8.548;2023-02-07T05:42:06;101987.78;;;-1.52;80.73
32298;BME280;18782;48.984;8.548;2023-02-07T05:44:34;101988.91;;;-1.57;81.61
32298;BME280;18782;48.984;8.548;2023-02-07T05:47:01;101996.50;;;-1.57;82.31
32298;BME280;18782;48.984;8.548;2023-02-07T05:49:29;101985.84;;;-1.54;84.22
32298;BME280;18782;48.984;8.548;2023-02-07T05:51:58;101987.53;;;-1.46;87.17
32298;BME280;18782;48.984;8.548;2023-02-07T05:54:26;101988.97;;;-1.33;90.65
32298;BME280;18782;48.984;8.548;2023-02-07T05:56:53;101998.25;;;-1.24;88.90
32298;BME280;18782;48.984;8.548;2023-02-07T05:59:21;101999.16;;;-1.24;85.31
32298;BME280;18782;48.984;8.548;2023-02-07T06:01:49;102001.50;;;-1.25;84.71
32298;BME280;18782;48.984;8.548;2023-02-07T06:04:16;102002.78;;;-1.13;84.27
32298;BME280;18782;48.984;8.548;2023-02-07T06:06:44;102006.69;;;-1.08;83.54
32298;BME280;18782;48.984;8.548;2023-02-07T06:09:13;102001.31;;;-1.11;84.31
32298;BME280;18782;48.984;8.548;2023-02-07T06:11:40;102010.72;;;-1.01;86.05
32298;BME280;18782;48.984;8.548;2023-02-07T06:14:08;102012.09;;;-0.96;83.56
32298;BME280;18782;48.984;8.548;2023-02-07T06:16:36;102019.00;;;-0.87;83.44
32298;BME280;18782;48.984;8.548;2023-02-07T06:19:03;102024.06;;;-0.62;83.39
32298;BME280;18782;48.984;8.548;2023-02-07T06:21:31;102011.41;;;-0.62;79.82
32298;BME280;18782;48.984;8.548;2023-02-07T06:24:13;102012.84;;;-0.73;78.14
32298;BME280;18782;48.984;8.548;2023-02-07T06:26:41;102004.13;;;-0.84;79.29
32298;BME280;18782;48.984;8.548;2023-02-07T06:29:09;102003.97;;;-0.94;79.38
32298;BME280;18782;48.984;8.548;2023-02-07T06:31:37;101995.09;;;-1.06;79.83
32298;BME280;18782;48.984;8.548;2023-02-07T06:34:04;102002.03;;;-1.12;80.51
32298;BME280;18782;48.984;8.548;2023-02-07T06:36:32;102007.22;;;-1.19;80.92
32298;BME280;18782;48.984;8.548;2023-02-07T06:39:00;102005.72;;;-1.17;83.52
32298;BME280;18782;48.984;8.548;2023-02-07T06:41:29;102008.72;;;-1.13;84.27
32298;BME280;18782;48.984;8.548;2023-02-07T06:43:56;102006.31;;;-1.20;81.76
32298;BME280;18782;48.984;8.548;2023-02-07T06:46:24;102002.81;;;-1.29;81.38
32298;BME280;18782;48.984;8.548;2023-02-07T06:48:52;102004.97;;;-1.41;80.16
32298;BME280;18782;48.984;8.548;2023-02-07T06:51:19;102004.31;;;-1.47;81.17
32298;BME280;18782;48.984;8.548;2023-02-07T06:53:47;102009.63;;;-1.52;81.51
32298;BME280;18782;48.984;8.548;2023-02-07T06:56:15;102014.09;;;-1.50;81.12
32298;BME280;18782;48.984;8.548;2023-02-07T06:58:46;102023.88;;;-1.53;80.14
32298;BME280;18782;48.984;8.548;2023-02-07T07:01:13;102036.50;;;-1.53;79.98
32298;BME280;18782;48.984;8.548;2023-02-07T07:03:45;102038.28;;;-1.52;80.38
32298;BME280;18782;48.984;8.548;2023-02-07T07:06:13;102045.16;;;-1.51;79.72
32298;BME280;18782;48.984;8.548;2023-02-07T07:08:40;102045.72;;;-1.53;78.96
32298;BME280;18782;48.984;8.548;2023-02-07T07:11:08;102048.81;;;-1.56;79.37
32298;BME280;18782;48.984;8.548;2023-02-07T07:13:36;102047.19;;;-1.55;80.20
32298;BME280;18782;48.984;8.548;2023-02-07T07:16:05;102056.56;;;-1.54;80.07
32298;BME280;18782;48.984;8.548;2023-02-07T07:18:33;102056.72;;;-1.53;80.02
32298;BME280;18782;48.984;8.548;2023-02-07T07:21:03;102059.38;;;-1.51;81.14
32298;BME280;18782;48.984;8.548;2023-02-07T07:23:31;102056.56;;;-1.54;82.12
32298;BME280;18782;48.984;8.548;2023-02-07T07:25:59;102055.66;;;-1.55;82.41
32298;BME280;18782;48.984;8.548;2023-02-07T07:28:26;102046.47;;;-1.54;81.71
32298;BME280;18782;48.984;8.548;2023-02-07T07:30:54;102048.97;;;-1.39;86.22
32298;BME280;18782;48.984;8.548;2023-02-07T07:33:23;102043.31;;;-1.20;84.63
32298;BME280;18782;48.984;8.548;2023-02-07T07:35:53;102052.69;;;-1.19;82.33
32298;BME280;18782;48.984;8.548;2023-02-07T07:38:23;102055.63;;;-1.23;80.47
32298;BME280;18782;48.984;8.548;2023-02-07T07:40:50;102057.22;;;-0.84;92.88
32298;BME280;18782;48.984;8.548;2023-02-07T07:43:18;102049.25;;;-1.04;84.36
32298;BME280;18782;48.984;8.548;2023-02-07T07:45:50;102050.66;;;-1.15;79.40
32298;BME280;18782;48.984;8.548;2023-02-07T07:48:19;102054.34;;;-1.20;79.21
32298;BME280;18782;48.984;8.548;2023-02-07T07:50:48;102055.63;;;-1.23;78.41
32298;BME280;18782;48.984;8.548;2023-02-07T07:53:16;102056.19;;;-1.26;78.96
32298;BME280;18782;48.984;8.548;2023-02-07T07:55:47;102061.91;;;-1.20;79.20
32298;BME280;18782;48.984;8.548;2023-02-07T07:58:15;102054.22;;;-1.13;80.57
32298;BME280;18782;48.984;8.548;2023-02-07T08:00:44;102061.44;;;-1.00;79.74
32298;BME280;18782;48.984;8.548;2023-02-07T08:03:13;102061.78;;;-0.97;80.02
32298;BME280;18782;48.984;8.548;2023-02-07T08:05:40;102057.03;;;-0.94;77.75
32298;BME280;18782;48.984;8.548;2023-02-07T08:08:10;102057.34;;;-0.91;77.74
32298;BME280;18782;48.984;8.548;2023-02-07T08:10:37;102067.53;;;-0.82;76.99
32298;BME280;18782;48.984;8.548;2023-02-07T08:13:06;102060.56;;;-0.76;77.17
32298;BME280;18782;48.984;8.548;2023-02-07T08:15:34;102067.56;;;-0.73;75.82
32298;BME280;18782;48.984;8.548;2023-02-07T08:18:01;102073.28;;;-0.67;74.91
32298;BME280;18782;48.984;8.548;2023-02-07T08:20:29;102076.84;;;-0.65;75.14
32298;BME280;18782;48.984;8.548;2023-02-07T08:22:57;102078.53;;;-0.57;75.55
32298;BME280;18782;48.984;8.548;2023-02-07T08:25:26;102090.19;;;-0.42;74.54
32298;BME280;18782;48.984;8.548;2023-02-07T08:27:54;102104.69;;;-0.32;76.58
32298;BME280;18782;48.984;8.548;2023-02-07T08:30:22;102101.28;;;0.09;83.95
32298;BME280;18782;48.984;8.548;2023-02-07T08:32:49;102099.72;;;-0.06;75.32
32298;BME280;18782;48.984;8.548;2023-02-07T08:35:18;102096.16;;;-0.08;72.43
32298;BME280;18782;48.984;8.548;2023-02-07T08:37:45;102097.00;;;-0.16;72.76
32298;BME280;18782;48.984;8.548;2023-02-07T08:40:13;102103.44;;;-0.11;73.21
32298;BME280;18782;48.984;8.548;2023-02-07T08:42:42;102106.63;;;0.04;72.80
32298;BME280;18782;48.984;8.548;2023-02-07T08:45:10;102104.41;;;0.15;72.31
32298;BME280;18782;48.984;8.548;2023-02-07T08:47:38;102108.63;;;0.23;72.30
32298;BME280;18782;48.984;8.548;2023-02-07T08:50:06;102104.63;;;0.34;71.51
32298;BME280;18782;48.984;8.548;2023-02-07T08:52:34;102108.81;;;0.51;70.51
32298;BME280;18782;48.984;8.548;2023-02-07T08:55:02;102114.66;;;0.50;70.46
32298;BME280;18782;48.984;8.548;2023-02-07T08:57:30;102104.69;;;0.60;68.75
32298;BME280;18782;48.984;8.548;2023-02-07T08:59:59;102106.91;;;0.66;67.33
32298;BME280;18782;48.984;8.548;2023-02-07T09:02:27;102103.19;;;0.62;65.54
32298;BME280;18782;48.984;8.548;2023-02-07T09:04:55;102107.53;;;0.63;65.99
32298;BME280;18782;48.984;8.548;2023-02-07T09:07:22;102107.66;;;0.82;69.33
32298;BME280;18782;48.984;8.548;2023-02-07T09:09:50;102107.50;;;0.98;66.09
32298;BME280;18782;48.984;8.548;2023-02-07T09:12:17;102107.66;;;1.08;66.21
32298;BME280;18782;48.984;8.548;2023-02-07T09:14:45;102103.34;;;1.16;66.40
32298;BME280;18782;48.984;8.548;2023-02-07T09:17:14;102103.44;;;1.35;65.23
32298;BME280;18782;48.984;8.548;2023-02-07T09:19:42;102106.16;;;1.36;63.91
32298;BME280;18782;48.984;8.548;2023-02-07T09:22:09;102105.22;;;1.36;62.94
32298;BME280;18782;48.984;8.548;2023-02-07T09:24:37;102104.16;;;1.51;61.99
32298;BME280;18782;48.984;8.548;2023-02-07T09:27:05;102105.47;;;1.56;61.86
32298;BME280;18782;48.984;8.548;2023-02-07T09:29:33;102102.97;;;1.92;71.05
32298;BME280;18782;48.984;8.548;2023-02-07T09:32:01;102121.88;;;2.41;63.23
32298;BME280;18782;48.984;8.548;2023-02-07T09:34:32;102121.94;;;2.23;58.38
32298;BME280;18782;48.984;8.548;2023-02-07T09:36:59;102119.97;;;2.29;60.71
32298;BME280;18782;48.984;8.548;2023-02-07T09:39:27;102121.50;;;2.93;74.93
32298;BME280;18782;48.984;8.548;2023-02-07T09:42:05;102113.09;;;2.94;62.06
32298;BME280;18782;48.984;8.548;2023-02-07T09:44:46;102119.41;;;3.07;61.25
32298;BME280;18782;48.984;8.548;2023-02-07T09:47:22;102121.88;;;3.16;60.38
32298;BME280;18782;48.984;8.548;2023-02-07T09:49:53;102130.13;;;3.32;59.45
32298;BME280;18782;48.984;8.548;2023-02-07T09:52:25;102124.47;;;3.45;58.79
32298;BME280;18782;48.984;8.548;2023-02-07T09:54:56;102123.47;;;3.53;57.49
32298;BME280;18782;48.984;8.548;2023-02-07T09:57:29;102126.00;;;3.53;57.88
32298;BME280;18782;48.984;8.548;2023-02-07T10:00:05;102137.28;;;3.65;58.07
32298;BME280;18782;48.984;8.548;2023-02-07T10:02:37;102135.38;;;3.73;60.64
32298;BME280;18782;48.984;8.548;2023-02-07T10:05:14;102127.47;;;3.70;56.39
32298;BME280;18782;48.984;8.548;2023-02-07T10:07:44;102124.25;;;3.33;57.07
32298;BME280;18782;48.984;8.548;2023-02-07T10:10:14;102128.81;;;3.27;55.90
32298;BME280;18782;48.984;8.548;2023-02-07T10:12:52;102124.31;;;3.44;57.91
32298;BME280;18782;48.984;8.548;2023-02-07T10:15:40;102118.56;;;3.75;56.78
32298;BME280;18782;48.984;8.548;2023-02-07T10:18:25;102118.91;;;3.99;56.44
32298;BME280;18782;48.984;8.548;2023-02-07T10:21:02;102127.88;;;4.24;56.59
32298;BME280;18782;48.984;8.548;2023-02-07T10:23:39;102117.69;;;4.44;56.23
32298;BME280;18782;48.984;8.548;2023-02-07T10:26:20;102120.75;;;4.40;55.44
32298;BME280;18782;48.984;8.548;2023-02-07T10:29:13;102122.03;;;4.45;56.25
32298;BME280;18782;48.984;8.548;2023-02-07T10:31:47;102125.56;;;4.58;55.01
32298;BME280;18782;48.984;8.548;2023-02-07T10:34:20;102132.94;;;4.85;54.26
32298;BME280;18782;48.984;8.548;2023-02-07T10:36:51;102128.56;;;5.15;55.00
32298;BME280;18782;48.984;8.548;2023-02-07T10:39:23;102119.03;;;5.44;52.98
32298;BME280;18782;48.984;8.548;2023-02-07T10:41:53;102115.78;;;5.57;51.95
32298;BME280;18782;48.984;8.548;2023-02-07T10:44:23;102120.00;;;5.57;51.14
32298;BME280;18782;48.984;8.548;2023-02-07T10:46:56;102128.88;;;5.72;52.27
32298;BME280;18782;48.984;8.548;2023-02-07T10:49:27;102125.97;;;6.21;62.63
32298;BME280;18782;48.984;8.548;2023-02-07T10:51:58;102114.09;;;7.02;62.88
32298;BME280;18782;48.984;8.548;2023-02-07T10:54:28;102119.66;;;7.44;58.74
32298;BME280;18782;48.984;8.548;2023-02-07T10:56:57;102110.84;;;8.00;58.49
32298;BME280;18782;48.984;8.548;2023-02-07T10:59:36;102126.41;;;8.15;55.34
32298;BME280;18782;48.984;8.548;2023-02-07T11:05:38;102115.84;;;8.74;44.90
32298;BME280;18782;48.984;8.548;2023-02-07T11:08:23;102116.88;;;8.89;51.03
32298;BME280;18782;48.984;8.548;2023-02-07T11:10:53;102121.59;;;8.83;45.07
32298;BME280;18782;48.984;8.548;2023-02-07T11:13:23;102118.94;;;8.43;45.48
32298;BME280;18782;48.984;8.548;2023-02-07T11:15:56;102107.13;;;8.72;50.55
32298;BME280;18782;48.984;8.548;2023-02-07T11:18:34;102108.38;;;9.17;49.55
32298;BME280;18782;48.984;8.548;2023-02-07T11:21:05;102102.19;;;9.67;50.60
32298;BME280;18782;48.984;8.548;2023-02-07T11:23:35;102104.03;;;10.11;46.98
32298;BME280;18782;48.984;8.548;2023-02-07T11:26:03;102098.25;;;10.43;46.55
32298;BME280;18782;48.984;8.548;2023-02-07T11:28:31;102097.72;;;10.49;46.52
32298;BME280;18782;48.984;8.548;2023-02-07T11:31:00;102090.00;;;10.49;44.61
32298;BME280;18782;48.984;8.548;2023-02-07T11:33:31;102092.53;;;10.62;41.28
32298;BME280;18782;48.984;8.548;2023-02-07T11:36:12;102087.28;;;10.76;45.19
32298;BME280;18782;48.984;8.548;2023-02-07T11:38:52;102090.25;;;11.28;44.01
32298;BME280;18782;48.984;8.548;2023-02-07T11:41:22;102079.00;;;11.42;42.70
32298;BME280;18782;48.984;8.548;2023-02-07T11:43:53;102080.81;;;11.59;42.59
32298;BME280;18782;48.984;8.548;2023-02-07T11:46:23;102085.09;;;11.75;37.43
32298;BME280;18782;48.984;8.548;2023-02-07T11:48:57;102077.94;;;11.07;37.54
32298;BME280;18782;48.984;8.548;2023-02-07T11:51:25;102076.94;;;11.05;38.96
32298;BME280;18782;48.984;8.548;2023-02-07T11:53:58;102077.34;;;10.82;39.48
32298;BME280;18782;48.984;8.548;2023-02-07T11:56:30;102080.41;;;11.06;38.78
32298;BME280;18782;48.984;8.548;2023-02-07T11:59:03;102087.50;;;11.56;38.49
32298;BME280;18782;48.984;8.548;2023-02-07T12:01:33;102088.16;;;11.68;37.66
32298;BME280;18782;48.984;8.548;2023-02-07T12:04:08;102086.56;;;11.39;37.88
32298;BME280;18782;48.984;8.548;2023-02-07T12:06:40;102088.13;;;11.52;38.45
32298;BME280;18782;48.984;8.548;2023-02-07T12:09:21;102071.50;;;11.46;38.22
32298;BME280;18782;48.984;8.548;2023-02-07T12:11:55;102085.72;;;11.86;37.57
32298;BME280;18782;48.984;8.548;2023-02-07T12:14:27;102074.16;;;11.48;35.60
32298;BME280;18782;48.984;8.548;2023-02-07T12:17:02;102074.13;;;11.79;36.21
32298;BME280;18782;48.984;8.548;2023-02-07T12:19:34;102071.81;;;12.00;37.34
32298;BME280;18782;48.984;8.548;2023-02-07T12:22:08;102068.56;;;12.37;35.86
32298;BME280;18782;48.984;8.548;2023-02-07T12:24:41;102055.41;;;12.48;33.88
32298;BME280;18782;48.984;8.548;2023-02-07T12:27:14;102066.50;;;12.82;33.86
32298;BME280;18782;48.984;8.548;2023-02-07T12:29:51;102054.22;;;12.25;33.66
32298;BME280;18782;48.984;8.548;2023-02-07T12:32:27;102057.97;;;11.82;34.45
32298;BME280;18782;48.984;8.548;2023-02-07T12:35:04;102040.78;;;11.82;34.51
32298;BME280;18782;48.984;8.548;2023-02-07T12:37:39;102050.44;;;11.22;33.89
32298;BME280;18782;48.984;8.548;2023-02-07T12:40:15;102044.19;;;11.50;34.51
32298;BME280;18782;48.984;8.548;2023-02-07T12:42:48;102048.50;;;11.18;34.63
32298;BME280;18782;48.984;8.548;2023-02-07T12:45:31;102038.81;;;11.78;34.93
32298;BME280;18782;48.984;8.548;2023-02-07T12:48:05;102029.81;;;11.22;34.40
32298;BME280;18782;48.984;8.548;2023-02-07T12:50:46;102034.47;;;11.13;34.44
32298;BME280;18782;48.984;8.548;2023-02-07T12:53:32;102026.47;;;11.09;34.22
32298;BME280;18782;48.984;8.548;2023-02-07T12:56:13;102020.09;;;11.02;34.27
32298;BME280;18782;48.984;8.548;2023-02-07T12:58:49;102020.78;;;10.24;35.09
32298;BME280;18782;48.984;8.548;2023-02-07T13:01:26;102022.44;;;10.83;34.42
32298;BME280;18782;48.984;8.548;2023-02-07T13:07:15;102020.25;;;10.30;35.61
32298;BME280;18782;48.984;8.548;2023-02-07T13:09:52;102006.66;;;10.47;35.40
32298;BME280;18782;48.984;8.548;2023-02-07T13:12:23;102006.66;;;10.32;34.63
32298;BME280;18782;48.984;8.548;2023-02-07T13:15:03;102011.22;;;10.97;34.23
32298;BME280;18782;48.984;8.548;2023-02-07T13:17:39;102012.38;;;10.87;34.63
32298;BME280;18782;48.984;8.548;2023-02-07T13:20:21;102009.34;;;11.26;34.00
32298;BME280;18782;48.984;8.548;2023-02-07T13:22:55;102005.19;;;11.76;35.19